« Back
NWS Peachtree City, Ga » Text Product » CSG Terminal Aerodrome Forecast


Printer-friendly Version
Current Version              Previous Versions:   1  2  3  4  5  6  7  8  9  

Terminal Aerodrome Forecast

219
FTUS42 KFFC 072325
TAFCSG
TAF
KCSG 072325Z 0800/0824 32006KT P6SM SKC
     FM080200 00000KT P6SM SKC
     FM081600 27006KT P6SM FEW050=

USA.gov is the U.S. government's official web portal to all federal, state and local government web resources and services.